sensor_id;sensor_type;location;lat;lon;timestamp;pressure;altitude;pressure_sealevel;temperature;humidity
67840;BME280;54636;51.684;5.142;2023-05-08T00:02:24;102081.16;;;14.84;100.00
67840;BME280;54636;51.684;5.142;2023-05-08T00:04:50;102083.81;;;14.78;100.00
67840;BME280;54636;51.684;5.142;2023-05-08T00:07:15;102074.03;;;14.72;100.00
67840;BME280;54636;51.684;5.142;2023-05-08T00:09:40;102075.47;;;14.67;100.00
67840;BME280;54636;51.684;5.142;2023-05-08T00:12:06;102077.66;;;14.63;100.00
67840;BME280;54636;51.684;5.142;2023-05-08T00:14:31;102073.16;;;14.60;100.00
67840;BME280;54636;51.684;5.142;2023-05-08T00:16:57;102075.31;;;14.56;100.00
67840;BME280;54636;51.684;5.142;2023-05-08T00:19:22;102076.00;;;14.51;100.00
67840;BME280;54636;51.684;5.142;2023-05-08T00:21:48;102075.72;;;14.49;100.00
67840;BME280;54636;51.684;5.142;2023-05-08T00:24:13;102075.44;;;14.47;100.00
67840;BME280;54636;51.684;5.142;2023-05-08T00:26:38;102070.66;;;14.42;100.00
67840;BME280;54636;51.684;5.142;2023-05-08T00:29:06;102077.53;;;14.37;100.00
67840;BME280;54636;51.684;5.142;2023-05-08T00:31:31;102073.47;;;14.33;100.00
67840;BME280;54636;51.684;5.142;2023-05-08T00:33:56;102073.44;;;14.27;100.00
67840;BME280;54636;51.684;5.142;2023-05-08T00:36:22;102078.16;;;14.27;100.00
67840;BME280;54636;51.684;5.142;2023-05-08T00:38:47;102077.13;;;14.24;100.00
67840;BME280;54636;51.684;5.142;2023-05-08T00:41:13;102069.13;;;14.21;100.00
67840;BME280;54636;51.684;5.142;2023-05-08T00:43:38;102066.84;;;14.19;100.00
67840;BME280;54636;51.684;5.142;2023-05-08T00:46:04;102074.50;;;14.15;100.00
67840;BME280;54636;51.684;5.142;2023-05-08T00:48:31;102069.97;;;14.12;100.00
67840;BME280;54636;51.684;5.142;2023-05-08T00:50:59;102071.88;;;14.06;100.00
67840;BME280;54636;51.684;5.142;2023-05-08T00:53:28;102069.06;;;14.00;100.00
67840;BME280;54636;51.684;5.142;2023-05-08T00:55:55;102073.97;;;13.96;100.00
67840;BME280;54636;51.684;5.142;2023-05-08T00:58:21;102074.16;;;13.93;100.00
67840;BME280;54636;51.684;5.142;2023-05-08T01:00:49;102079.91;;;13.95;100.00
67840;BME280;54636;51.684;5.142;2023-05-08T01:03:15;102070.66;;;13.92;100.00
67840;BME280;54636;51.684;5.142;2023-05-08T01:05:42;102067.00;;;13.80;100.00
67840;BME280;54636;51.684;5.142;2023-05-08T01:08:07;102072.19;;;13.78;100.00
67840;BME280;54636;51.684;5.142;2023-05-08T01:11:08;102065.59;;;13.70;100.00
67840;BME280;54636;51.684;5.142;2023-05-08T01:14:18;102058.28;;;13.62;100.00
67840;BME280;54636;51.684;5.142;2023-05-08T01:16:48;102058.38;;;13.52;100.00
67840;BME280;54636;51.684;5.142;2023-05-08T01:22:04;102063.91;;;13.43;100.00
67840;BME280;54636;51.684;5.142;2023-05-08T01:33:06;102069.72;;;13.22;100.00
67840;BME280;54636;51.684;5.142;2023-05-08T01:35:40;102079.31;;;13.17;100.00
67840;BME280;54636;51.684;5.142;2023-05-08T01:38:32;102067.03;;;13.12;100.00
67840;BME280;54636;51.684;5.142;2023-05-08T01:41:07;102067.69;;;13.07;100.00
67840;BME280;54636;51.684;5.142;2023-05-08T01:46:18;102069.19;;;13.08;100.00
67840;BME280;54636;51.684;5.142;2023-05-08T01:49:10;102077.25;;;13.03;100.00
67840;BME280;54636;51.684;5.142;2023-05-08T01:51:46;102084.59;;;12.97;100.00
67840;BME280;54636;51.684;5.142;2023-05-08T01:54:20;102087.97;;;12.92;100.00
67840;BME280;54636;51.684;5.142;2023-05-08T01:56:47;102090.88;;;12.88;100.00
67840;BME280;54636;51.684;5.142;2023-05-08T01:59:16;102089.38;;;12.87;100.00
67840;BME280;54636;51.684;5.142;2023-05-08T02:01:45;102088.50;;;12.81;100.00
67840;BME280;54636;51.684;5.142;2023-05-08T02:04:13;102093.94;;;12.81;100.00
67840;BME280;54636;51.684;5.142;2023-05-08T02:06:39;102085.47;;;12.79;100.00
67840;BME280;54636;51.684;5.142;2023-05-08T02:09:07;102095.34;;;12.76;100.00
67840;BME280;54636;51.684;5.142;2023-05-08T02:11:35;102096.28;;;12.73;100.00
67840;BME280;54636;51.684;5.142;2023-05-08T02:14:02;102095.09;;;12.65;100.00
67840;BME280;54636;51.684;5.142;2023-05-08T02:16:29;102093.31;;;12.62;100.00
67840;BME280;54636;51.684;5.142;2023-05-08T02:18:57;102102.81;;;12.67;100.00
67840;BME280;54636;51.684;5.142;2023-05-08T02:21:24;102096.63;;;12.66;100.00
67840;BME280;54636;51.684;5.142;2023-05-08T02:23:50;102105.72;;;12.63;100.00
67840;BME280;54636;51.684;5.142;2023-05-08T02:26:18;102105.25;;;12.65;100.00
67840;BME280;54636;51.684;5.142;2023-05-08T02:28:47;102100.72;;;12.62;100.00
67840;BME280;54636;51.684;5.142;2023-05-08T02:31:13;102100.72;;;12.62;100.00
67840;BME280;54636;51.684;5.142;2023-05-08T02:33:40;102105.31;;;12.56;100.00
67840;BME280;54636;51.684;5.142;2023-05-08T02:36:07;102103.03;;;12.54;100.00
67840;BME280;54636;51.684;5.142;2023-05-08T02:38:34;102101.25;;;12.51;100.00
67840;BME280;54636;51.684;5.142;2023-05-08T02:41:03;102103.22;;;12.50;100.00
67840;BME280;54636;51.684;5.142;2023-05-08T02:43:30;102092.31;;;12.50;100.00
67840;BME280;54636;51.684;5.142;2023-05-08T02:46:07;102096.53;;;12.51;100.00
67840;BME280;54636;51.684;5.142;2023-05-08T02:48:41;102094.28;;;12.50;100.00
67840;BME280;54636;51.684;5.142;2023-05-08T02:51:19;102098.97;;;12.49;100.00
67840;BME280;54636;51.684;5.142;2023-05-08T02:54:08;102096.72;;;12.48;100.00
67840;BME280;54636;51.684;5.142;2023-05-08T02:56:48;102092.78;;;12.49;100.00
67840;BME280;54636;51.684;5.142;2023-05-08T02:59:41;102093.81;;;12.51;100.00
67840;BME280;54636;51.684;5.142;2023-05-08T03:02:13;102094.28;;;12.50;100.00
67840;BME280;54636;51.684;5.142;2023-05-08T03:04:48;102086.28;;;12.46;100.00
67840;BME280;54636;51.684;5.142;2023-05-08T03:07:15;102088.69;;;12.44;100.00
67840;BME280;54636;51.684;5.142;2023-05-08T03:09:44;102094.63;;;12.43;100.00
67840;BME280;54636;51.684;5.142;2023-05-08T03:12:14;102082.38;;;12.38;100.00
67840;BME280;54636;51.684;5.142;2023-05-08T03:14:49;102089.50;;;12.36;100.00
67840;BME280;54636;51.684;5.142;2023-05-08T03:17:17;102081.53;;;12.32;100.00
67840;BME280;54636;51.684;5.142;2023-05-08T03:19:46;102085.16;;;12.29;100.00
67840;BME280;54636;51.684;5.142;2023-05-08T03:22:14;102082.16;;;12.27;100.00
67840;BME280;54636;51.684;5.142;2023-05-08T03:24:41;102082.31;;;12.24;100.00
67840;BME280;54636;51.684;5.142;2023-05-08T03:27:08;102086.56;;;12.25;100.00
67840;BME280;54636;51.684;5.142;2023-05-08T03:29:35;102082.59;;;12.26;100.00
67840;BME280;54636;51.684;5.142;2023-05-08T03:32:02;102082.19;;;12.18;100.00
67840;BME280;54636;51.684;5.142;2023-05-08T03:34:29;102087.03;;;12.14;100.00
67840;BME280;54636;51.684;5.142;2023-05-08T03:36:55;102089.94;;;12.10;100.00
67840;BME280;54636;51.684;5.142;2023-05-08T03:39:21;102089.19;;;12.10;100.00
67840;BME280;54636;51.684;5.142;2023-05-08T03:41:48;102079.97;;;12.07;100.00
67840;BME280;54636;51.684;5.142;2023-05-08T03:44:15;102092.34;;;12.08;100.00
67840;BME280;54636;51.684;5.142;2023-05-08T03:46:42;102087.06;;;12.05;100.00
67840;BME280;54636;51.684;5.142;2023-05-08T03:49:09;102094.94;;;12.03;100.00
67840;BME280;54636;51.684;5.142;2023-05-08T03:51:37;102081.50;;;11.99;100.00
67840;BME280;54636;51.684;5.142;2023-05-08T03:54:04;102086.47;;;12.01;100.00
67840;BME280;54636;51.684;5.142;2023-05-08T03:56:29;102091.16;;;12.00;100.00
67840;BME280;54636;51.684;5.142;2023-05-08T04:01:43;102087.09;;;11.96;100.00
67840;BME280;54636;51.684;5.142;2023-05-08T04:04:17;102094.66;;;12.01;100.00
67840;BME280;54636;51.684;5.142;2023-05-08T04:06:48;102092.69;;;12.01;100.00
67840;BME280;54636;51.684;5.142;2023-05-08T04:09:34;102096.91;;;12.02;100.00
67840;BME280;54636;51.684;5.142;2023-05-08T04:12:06;102093.91;;;12.00;100.00
67840;BME280;54636;51.684;5.142;2023-05-08T04:14:39;102103.88;;;12.03;100.00
67840;BME280;54636;51.684;5.142;2023-05-08T04:17:09;102096.47;;;12.04;100.00
67840;BME280;54636;51.684;5.142;2023-05-08T04:19:42;102096.00;;;12.05;100.00
67840;BME280;54636;51.684;5.142;2023-05-08T04:22:10;102097.97;;;12.05;100.00
67840;BME280;54636;51.684;5.142;2023-05-08T04:24:41;102093.28;;;12.05;100.00
67840;BME280;54636;51.684;5.142;2023-05-08T04:27:08;102094.31;;;12.08;100.00
67840;BME280;54636;51.684;5.142;2023-05-08T04:29:35;102095.69;;;12.12;100.00
67840;BME280;54636;51.684;5.142;2023-05-08T04:32:03;102098.53;;;12.18;100.00
67840;BME280;54636;51.684;5.142;2023-05-08T04:34:29;102098.19;;;12.25;100.00
67840;BME280;54636;51.684;5.142;2023-05-08T04:36:55;102103.47;;;12.29;100.00
67840;BME280;54636;51.684;5.142;2023-05-08T04:39:21;102099.41;;;12.24;100.00
67840;BME280;54636;51.684;5.142;2023-05-08T04:41:46;102104.38;;;12.35;100.00
67840;BME280;54636;51.684;5.142;2023-05-08T04:44:13;102109.53;;;12.33;100.00
67840;BME280;54636;51.684;5.142;2023-05-08T04:46:38;102100.47;;;12.27;100.00
67840;BME280;54636;51.684;5.142;2023-05-08T04:49:03;102116.94;;;12.32;100.00
67840;BME280;54636;51.684;5.142;2023-05-08T04:51:29;102119.38;;;12.30;100.00
67840;BME280;54636;51.684;5.142;2023-05-08T04:53:56;102122.38;;;12.32;100.00
67840;BME280;54636;51.684;5.142;2023-05-08T04:56:21;102124.75;;;12.39;100.00
67840;BME280;54636;51.684;5.142;2023-05-08T04:58:47;102112.19;;;12.42;100.00
67840;BME280;54636;51.684;5.142;2023-05-08T05:01:12;102121.53;;;12.50;100.00
67840;BME280;54636;51.684;5.142;2023-05-08T05:03:38;102124.97;;;12.60;100.00
67840;BME280;54636;51.684;5.142;2023-05-08T05:06:03;102124.00;;;12.72;100.00
67840;BME280;54636;51.684;5.142;2023-05-08T05:08:29;102128.00;;;12.85;100.00
67840;BME280;54636;51.684;5.142;2023-05-08T05:10:54;102128.72;;;12.95;100.00
67840;BME280;54636;51.684;5.142;2023-05-08T05:13:19;102136.75;;;13.13;100.00
67840;BME280;54636;51.684;5.142;2023-05-08T05:15:45;102128.28;;;13.35;100.00
67840;BME280;54636;51.684;5.142;2023-05-08T05:18:10;102136.31;;;13.54;100.00
67840;BME280;54636;51.684;5.142;2023-05-08T05:20:36;102131.78;;;13.65;100.00
67840;BME280;54636;51.684;5.142;2023-05-08T05:23:02;102142.91;;;13.76;100.00
67840;BME280;54636;51.684;5.142;2023-05-08T05:25:28;102150.25;;;13.85;100.00
67840;BME280;54636;51.684;5.142;2023-05-08T05:27:54;102151.66;;;13.95;100.00
67840;BME280;54636;51.684;5.142;2023-05-08T05:30:20;102153.09;;;14.05;100.00
67840;BME280;54636;51.684;5.142;2023-05-08T05:32:45;102149.97;;;14.12;100.00
67840;BME280;54636;51.684;5.142;2023-05-08T05:35:10;102156.75;;;14.17;100.00
67840;BME280;54636;51.684;5.142;2023-05-08T05:37:36;102151.38;;;14.23;100.00
67840;BME280;54636;51.684;5.142;2023-05-08T05:40:02;102144.28;;;14.31;100.00
67840;BME280;54636;51.684;5.142;2023-05-08T05:42:27;102156.91;;;14.43;100.00
67840;BME280;54636;51.684;5.142;2023-05-08T05:44:53;102159.25;;;14.50;100.00
67840;BME280;54636;51.684;5.142;2023-05-08T05:47:18;102148.31;;;14.50;100.00
67840;BME280;54636;51.684;5.142;2023-05-08T05:49:43;102161.59;;;14.57;100.00
67840;BME280;54636;51.684;5.142;2023-05-08T05:52:12;102158.38;;;14.59;100.00
67840;BME280;54636;51.684;5.142;2023-05-08T05:54:37;102161.31;;;14.55;100.00
67840;BME280;54636;51.684;5.142;2023-05-08T05:57:03;102170.06;;;14.59;100.00
67840;BME280;54636;51.684;5.142;2023-05-08T05:59:29;102174.22;;;14.55;100.00
67840;BME280;54636;51.684;5.142;2023-05-08T06:01:54;102173.56;;;14.60;100.00
67840;BME280;54636;51.684;5.142;2023-05-08T06:04:20;102178.44;;;14.70;100.00
67840;BME280;54636;51.684;5.142;2023-05-08T06:06:45;102170.13;;;14.79;100.00
67840;BME280;54636;51.684;5.142;2023-05-08T06:09:11;102168.22;;;14.86;100.00
67840;BME280;54636;51.684;5.142;2023-05-08T06:11:36;102162.75;;;14.86;100.00
67840;BME280;54636;51.684;5.142;2023-05-08T06:14:01;102160.84;;;14.92;100.00
67840;BME280;54636;51.684;5.142;2023-05-08T06:16:27;102168.59;;;14.99;100.00
67840;BME280;54636;51.684;5.142;2023-05-08T06:18:54;102171.06;;;15.17;100.00
67840;BME280;54636;51.684;5.142;2023-05-08T06:21:20;102165.88;;;15.39;100.00
67840;BME280;54636;51.684;5.142;2023-05-08T06:23:45;102177.78;;;15.57;100.00
67840;BME280;54636;51.684;5.142;2023-05-08T06:26:11;102186.56;;;15.66;100.00
67840;BME280;54636;51.684;5.142;2023-05-08T06:28:36;102184.91;;;15.74;100.00
67840;BME280;54636;51.684;5.142;2023-05-08T06:31:01;102182.72;;;15.78;100.00
67840;BME280;54636;51.684;5.142;2023-05-08T06:33:27;102182.72;;;15.78;100.00
67840;BME280;54636;51.684;5.142;2023-05-08T06:35:54;102187.50;;;15.84;100.00
67840;BME280;54636;51.684;5.142;2023-05-08T06:38:19;102195.28;;;15.91;100.00
67840;BME280;54636;51.684;5.142;2023-05-08T06:40:45;102191.03;;;15.90;100.00
67840;BME280;54636;51.684;5.142;2023-05-08T06:43:11;102190.56;;;15.91;100.00
67840;BME280;54636;51.684;5.142;2023-05-08T06:45:37;102195.84;;;15.95;100.00
67840;BME280;54636;51.684;5.142;2023-05-08T06:48:03;102188.16;;;15.99;100.00
67840;BME280;54636;51.684;5.142;2023-05-08T06:50:28;102192.91;;;16.04;100.00
67840;BME280;54636;51.684;5.142;2023-05-08T06:52:54;102192.16;;;16.03;100.00
67840;BME280;54636;51.684;5.142;2023-05-08T06:55:19;102185.72;;;16.06;100.00
67840;BME280;54636;51.684;5.142;2023-05-08T06:57:45;102185.50;;;16.10;100.00
67840;BME280;54636;51.684;5.142;2023-05-08T07:00:10;102195.97;;;16.11;100.00
67840;BME280;54636;51.684;5.142;2023-05-08T07:02:36;102192.81;;;16.19;100.00
67840;BME280;54636;51.684;5.142;2023-05-08T07:05:02;102190.38;;;16.32;100.00
67840;BME280;54636;51.684;5.142;2023-05-08T07:07:27;102188.00;;;16.45;100.00
67840;BME280;54636;51.684;5.142;2023-05-08T07:09:52;102189.06;;;16.53;100.00
67840;BME280;54636;51.684;5.142;2023-05-08T07:12:18;102188.13;;;16.62;100.00
67840;BME280;54636;51.684;5.142;2023-05-08T07:14:44;102191.50;;;16.83;100.00
67840;BME280;54636;51.684;5.142;2023-05-08T07:17:09;102180.34;;;16.97;100.00
67840;BME280;54636;51.684;5.142;2023-05-08T07:19:35;102186.88;;;17.11;100.00
67840;BME280;54636;51.684;5.142;2023-05-08T07:22:01;102189.72;;;17.28;100.00
67840;BME280;54636;51.684;5.142;2023-05-08T07:24:26;102191.78;;;17.50;100.00
67840;BME280;54636;51.684;5.142;2023-05-08T07:26:52;102185.09;;;17.67;100.00
67840;BME280;54636;51.684;5.142;2023-05-08T07:29:17;102195.84;;;17.82;100.00
67840;BME280;54636;51.684;5.142;2023-05-08T07:31:44;102205.63;;;17.94;100.00
67840;BME280;54636;51.684;5.142;2023-05-08T07:34:11;102193.88;;;17.94;100.00
67840;BME280;54636;51.684;5.142;2023-05-08T07:36:36;102194.38;;;17.98;100.00
67840;BME280;54636;51.684;5.142;2023-05-08T07:39:02;102194.38;;;18.20;100.00
67840;BME280;54636;51.684;5.142;2023-05-08T07:41:28;102194.34;;;18.37;100.00
67840;BME280;54636;51.684;5.142;2023-05-08T07:43:53;102189.09;;;18.61;100.00
67840;BME280;54636;51.684;5.142;2023-05-08T07:46:19;102188.31;;;18.78;100.00
67840;BME280;54636;51.684;5.142;2023-05-08T07:48:45;102185.00;;;18.90;100.00
67840;BME280;54636;51.684;5.142;2023-05-08T07:51:12;102196.53;;;18.89;100.00
67840;BME280;54636;51.684;5.142;2023-05-08T07:53:37;102191.50;;;18.98;100.00
67840;BME280;54636;51.684;5.142;2023-05-08T07:56:03;102186.75;;;18.88;100.00
67840;BME280;54636;51.684;5.142;2023-05-08T07:58:28;102198.88;;;18.62;100.00
67840;BME280;54636;51.684;5.142;2023-05-08T08:00:54;102198.88;;;18.62;100.00
67840;BME280;54636;51.684;5.142;2023-05-08T08:03:19;102188.06;;;18.81;100.00
67840;BME280;54636;51.684;5.142;2023-05-08T08:05:44;102183.69;;;19.08;100.00
67840;BME280;54636;51.684;5.142;2023-05-08T08:08:10;102190.06;;;19.38;100.00
67840;BME280;54636;51.684;5.142;2023-05-08T08:10:36;102180.75;;;19.47;100.00
67840;BME280;54636;51.684;5.142;2023-05-08T08:13:01;102188.06;;;19.39;97.68
67840;BME280;54636;51.684;5.142;2023-05-08T08:15:27;102182.81;;;19.35;99.30
67840;BME280;54636;51.684;5.142;2023-05-08T08:17:53;102176.09;;;19.31;98.12
67840;BME280;54636;51.684;5.142;2023-05-08T08:20:18;102182.63;;;19.22;98.39
67840;BME280;54636;51.684;5.142;2023-05-08T08:22:44;102190.16;;;19.22;97.60
67840;BME280;54636;51.684;5.142;2023-05-08T08:25:09;102178.88;;;19.25;98.83
67840;BME280;54636;51.684;5.142;2023-05-08T08:27:36;102174.38;;;19.22;98.28
67840;BME280;54636;51.684;5.142;2023-05-08T08:30:02;102181.28;;;19.46;99.30
67840;BME280;54636;51.684;5.142;2023-05-08T08:32:27;102184.91;;;19.65;98.71
67840;BME280;54636;51.684;5.142;2023-05-08T08:34:53;102185.31;;;19.80;96.41
67840;BME280;54636;51.684;5.142;2023-05-08T08:37:18;102188.75;;;19.92;96.00
67840;BME280;54636;51.684;5.142;2023-05-08T08:39:43;102196.31;;;19.86;95.84
67840;BME280;54636;51.684;5.142;2023-05-08T08:42:09;102184.88;;;19.70;96.01
67840;BME280;54636;51.684;5.142;2023-05-08T08:44:36;102183.44;;;19.58;95.85
67840;BME280;54636;51.684;5.142;2023-05-08T08:47:03;102188.06;;;19.39;96.44
67840;BME280;54636;51.684;5.142;2023-05-08T08:49:50;102194.41;;;19.17;99.24
67840;BME280;54636;51.684;5.142;2023-05-08T08:52:29;102188.97;;;19.00;99.44
67840;BME280;54636;51.684;5.142;2023-05-08T08:54:57;102189.50;;;18.93;99.98
67840;BME280;54636;51.684;5.142;2023-05-08T08:57:27;102188.25;;;18.89;100.00
67840;BME280;54636;51.684;5.142;2023-05-08T08:59:54;102192.81;;;18.81;99.72
67840;BME280;54636;51.684;5.142;2023-05-08T09:02:21;102194.84;;;18.58;100.00
67840;BME280;54636;51.684;5.142;2023-05-08T09:04:50;102196.34;;;18.42;100.00
67840;BME280;54636;51.684;5.142;2023-05-08T09:07:16;102195.84;;;18.38;100.00
67840;BME280;54636;51.684;5.142;2023-05-08T09:09:43;102194.84;;;18.35;100.00
67840;BME280;54636;51.684;5.142;2023-05-08T09:12:11;102189.34;;;18.35;100.00
67840;BME280;54636;51.684;5.142;2023-05-08T09:14:37;102197.59;;;18.41;100.00
67840;BME280;54636;51.684;5.142;2023-05-08T09:17:02;102192.84;;;18.53;100.00
67840;BME280;54636;51.684;5.142;2023-05-08T09:19:28;102195.34;;;18.73;100.00
67840;BME280;54636;51.684;5.142;2023-05-08T09:21:54;102194.22;;;19.04;99.72
67840;BME280;54636;51.684;5.142;2023-05-08T09:24:22;102188.41;;;19.19;98.34
67840;BME280;54636;51.684;5.142;2023-05-08T09:26:48;102194.13;;;19.26;96.89
67840;BME280;54636;51.684;5.142;2023-05-08T09:29:16;102198.88;;;19.31;96.40
67840;BME280;54636;51.684;5.142;2023-05-08T09:31:44;102195.59;;;19.33;96.75
67840;BME280;54636;51.684;5.142;2023-05-08T09:34:29;102196.81;;;19.43;97.60
67840;BME280;54636;51.684;5.142;2023-05-08T09:37:09;102192.66;;;19.66;93.43
67840;BME280;54636;51.684;5.142;2023-05-08T09:39:35;102185.44;;;19.99;92.77
67840;BME280;54636;51.684;5.142;2023-05-08T09:42:03;102183.72;;;20.20;90.33
67840;BME280;54636;51.684;5.142;2023-05-08T09:44:45;102196.59;;;20.42;92.15
67840;BME280;54636;51.684;5.142;2023-05-08T09:47:12;102185.75;;;20.50;89.08
67840;BME280;54636;51.684;5.142;2023-05-08T09:49:38;102193.06;;;20.47;88.40
67840;BME280;54636;51.684;5.142;2023-05-08T09:52:05;102193.16;;;20.30;87.28
67840;BME280;54636;51.684;5.142;2023-05-08T09:54:31;102188.50;;;20.20;88.57
67840;BME280;54636;51.684;5.142;2023-05-08T09:56:56;102196.78;;;20.20;90.41
67840;BME280;54636;51.684;5.142;2023-05-08T09:59:24;102195.00;;;20.22;88.77
67840;BME280;54636;51.684;5.142;2023-05-08T10:01:53;102185.41;;;20.29;89.65
67840;BME280;54636;51.684;5.142;2023-05-08T10:04:33;102189.91;;;20.32;89.17
67840;BME280;54636;51.684;5.142;2023-05-08T10:06:59;102193.78;;;20.48;87.71
67840;BME280;54636;51.684;5.142;2023-05-08T10:09:25;102195.88;;;20.66;88.27
67840;BME280;54636;51.684;5.142;2023-05-08T10:11:51;102187.94;;;21.00;87.61
67840;BME280;54636;51.684;5.142;2023-05-08T10:14:20;102185.50;;;21.53;83.45
67840;BME280;54636;51.684;5.142;2023-05-08T10:16:47;102193.28;;;22.05;86.25
67840;BME280;54636;51.684;5.142;2023-05-08T10:19:23;102195.78;;;22.48;80.60
67840;BME280;54636;51.684;5.142;2023-05-08T10:21:53;102188.34;;;22.43;77.23
67840;BME280;54636;51.684;5.142;2023-05-08T10:24:29;102189.31;;;22.46;77.64
67840;BME280;54636;51.684;5.142;2023-05-08T10:29:46;102189.47;;;22.08;79.97
67840;BME280;54636;51.684;5.142;2023-05-08T10:32:18;102186.03;;;22.02;78.87
67840;BME280;54636;51.684;5.142;2023-05-08T10:34:45;102191.63;;;21.96;79.60
67840;BME280;54636;51.684;5.142;2023-05-08T10:37:14;102190.53;;;22.05;77.06
67840;BME280;54636;51.684;5.142;2023-05-08T10:39:40;102186.59;;;22.14;77.93
67840;BME280;54636;51.684;5.142;2023-05-08T10:42:07;102179.91;;;22.22;74.91
67840;BME280;54636;51.684;5.142;2023-05-08T10:44:32;102182.03;;;22.29;78.31
67840;BME280;54636;51.684;5.142;2023-05-08T10:49:42;102179.38;;;21.92;75.00
67840;BME280;54636;51.684;5.142;2023-05-08T10:52:25;102176.56;;;21.79;77.88
67840;BME280;54636;51.684;5.142;2023-05-08T10:57:22;102174.59;;;21.60;77.81
67840;BME280;54636;51.684;5.142;2023-05-08T10:59:51;102164.03;;;21.78;78.46
67840;BME280;54636;51.684;5.142;2023-05-08T11:02:25;102176.47;;;22.16;76.54
67840;BME280;54636;51.684;5.142;2023-05-08T11:04:52;102166.09;;;22.49;74.59
67840;BME280;54636;51.684;5.142;2023-05-08T11:07:18;102166.31;;;22.51;71.96
67840;BME280;54636;51.684;5.142;2023-05-08T11:09:45;102158.94;;;22.40;71.11
67840;BME280;54636;51.684;5.142;2023-05-08T11:12:27;102166.94;;;22.44;74.49
67840;BME280;54636;51.684;5.142;2023-05-08T11:17:23;102159.38;;;22.71;70.58
67840;BME280;54636;51.684;5.142;2023-05-08T11:20:02;102155.22;;;22.64;73.26
67840;BME280;54636;51.684;5.142;2023-05-08T11:22:29;102151.28;;;22.59;70.72
67840;BME280;54636;51.684;5.142;2023-05-08T11:25:05;102151.94;;;22.65;73.04
67840;BME280;54636;51.684;5.142;2023-05-08T11:43:24;102143.81;;;22.01;72.04
67840;BME280;54636;51.684;5.142;2023-05-08T11:45:53;102140.25;;;22.01;71.31
67840;BME280;54636;51.684;5.142;2023-05-08T11:48:19;102138.78;;;22.13;71.36
67840;BME280;54636;51.684;5.142;2023-05-08T11:50:45;102141.25;;;22.30;71.89
67840;BME280;54636;51.684;5.142;2023-05-08T11:53:11;102141.69;;;22.34;71.05
67840;BME280;54636;51.684;5.142;2023-05-08T11:55:37;102134.66;;;22.46;70.53
67840;BME280;54636;51.684;5.142;2023-05-08T11:58:11;102135.09;;;22.63;71.28
67840;BME280;54636;51.684;5.142;2023-05-08T12:00:40;102126.22;;;22.91;70.43
67840;BME280;54636;51.684;5.142;2023-05-08T12:03:05;102133.00;;;23.17;70.01
67840;BME280;54636;51.684;5.142;2023-05-08T12:05:31;102125.38;;;23.30;67.97
67840;BME280;54636;51.684;5.142;2023-05-08T12:07:58;102133.69;;;23.30;66.22
67840;BME280;54636;51.684;5.142;2023-05-08T12:10:23;102133.38;;;23.34;67.71
67840;BME280;54636;51.684;5.142;2023-05-08T12:12:49;102130.38;;;23.32;67.87
67840;BME280;54636;51.684;5.142;2023-05-08T12:15:14;102127.06;;;23.33;65.02
67840;BME280;54636;51.684;5.142;2023-05-08T12:17:41;102134.38;;;23.10;66.39
67840;BME280;54636;51.684;5.142;2023-05-08T12:20:16;102124.84;;;22.85;67.73
67840;BME280;54636;51.684;5.142;2023-05-08T12:22:50;102123.44;;;22.78;69.47
67840;BME280;54636;51.684;5.142;2023-05-08T12:25:16;102121.53;;;22.99;69.70
67840;BME280;54636;51.684;5.142;2023-05-08T12:27:43;102116.03;;;23.20;68.88
67840;BME280;54636;51.684;5.142;2023-05-08T12:30:11;102104.41;;;23.22;68.39
67840;BME280;54636;51.684;5.142;2023-05-08T12:32:42;102118.63;;;23.39;67.64
67840;BME280;54636;51.684;5.142;2023-05-08T12:35:09;102113.09;;;23.60;69.38
67840;BME280;54636;51.684;5.142;2023-05-08T12:37:35;102109.97;;;23.84;66.29
67840;BME280;54636;51.684;5.142;2023-05-08T12:40:01;102106.13;;;23.87;64.49
67840;BME280;54636;51.684;5.142;2023-05-08T12:42:48;102105.44;;;23.94;66.01
67840;BME280;54636;51.684;5.142;2023-05-08T12:45:28;102104.09;;;23.67;65.79
67840;BME280;54636;51.684;5.142;2023-05-08T12:48:06;102100.59;;;23.67;66.24
67840;BME280;54636;51.684;5.142;2023-05-08T12:50:40;102095.72;;;23.59;65.68
67840;BME280;54636;51.684;5.142;2023-05-08T12:53:10;102094.09;;;23.64;65.12
67840;BME280;54636;51.684;5.142;2023-05-08T12:55:38;102091.72;;;23.68;63.62
67840;BME280;54636;51.684;5.142;2023-05-08T12:58:09;102081.13;;;23.46;65.70
67840;BME280;54636;51.684;5.142;2023-05-08T13:00:46;102085.00;;;23.22;64.26
67840;BME280;54636;51.684;5.142;2023-05-08T13:03:21;102077.44;;;23.22;67.01
67840;BME280;54636;51.684;5.142;2023-05-08T13:05:47;102071.94;;;23.51;64.95
67840;BME280;54636;51.684;5.142;2023-05-08T13:08:13;102078.94;;;23.65;65.29
67840;BME280;54636;51.684;5.142;2023-05-08T13:10:43;102073.59;;;23.67;64.38
67840;BME280;54636;51.684;5.142;2023-05-08T13:13:11;102069.25;;;23.58;62.66
67840;BME280;54636;51.684;5.142;2023-05-08T13:15:37;102072.75;;;23.80;63.02
67840;BME280;54636;51.684;5.142;2023-05-08T13:18:03;102081.34;;;23.89;63.14
67840;BME280;54636;51.684;5.142;2023-05-08T13:20:28;102076.34;;;23.88;62.04
67840;BME280;54636;51.684;5.142;2023-05-08T13:22:54;102085.59;;;23.90;63.04
67840;BME280;54636;51.684;5.142;2023-05-08T13:25:19;102068.69;;;24.09;63.16
67840;BME280;54636;51.684;5.142;2023-05-08T13:27:44;102077.59;;;24.15;62.94
67840;BME280;54636;51.684;5.142;2023-05-08T13:30:11;102073.50;;;24.09;61.83
67840;BME280;54636;51.684;5.142;2023-05-08T13:32:39;102078.00;;;24.19;61.61